La Gomera > ESTACION METEOROLÓGICA Agulo

DATOS ACTUALES Online

Ultima actulizacion 5 minutos

14.5 ºC

Temperatura

73

Humedad (%)

Presión (mb)

0

Precipitación (mm)

6.9 S

Viento (Km/h)

DATOS DIARIOS

Temperatura últimas 24 horas (ºC)

Humedad últimas 24 horas (%)

Presión atmosférica últimas 24 horas (mb)

Precipitaciones últimas 23 horas (mm)

Viento últimas 24 horas (Km/h)

Hora Temperatura (°C) ºC Precipitación (mm) mm Presión (mb) mb Humedad (%) % Viento (Km/h) km/h
19 - 11:00 11.7 1.8 0 90 10.8 SW
19 - 12:00 12.2 2 0 89 11.5 SW
19 - 13:00 12.9 2 0 87 12.8 SW
19 - 14:00 14.5 2 0 81 8.6 S
19 - 15:00 16.7 2 0 70 3.9 S
19 - 16:00 16.8 2 0 68 5.2 SO
19 - 17:00 16.3 2 0 65 2.8 S
19 - 18:00 14.1 2 0 76 5.6 SW
19 - 19:00 13 2 0 78 7 S
19 - 20:00 13 2 0 61 2.1 SW
19 - 21:00 12.5 2 0 70 6.5 SW
19 - 22:00 12.2 2 0 75 2.1 SO
19 - 23:00 11.9 2 0 70 5.1 S
20 - 00:00 13.9 0 0 44 4 S
20 - 01:00 14 0 0 41 5.7 SW
20 - 02:00 13 0 0 62 6.5 S
20 - 03:00 12.5 0 0 73 6 S
20 - 04:00 12.6 0 0 78 8.5 S
20 - 05:00 12.8 0 0 79 8.8 S
20 - 06:00 12.8 0 0 75 8 SO
20 - 07:00 12.9 0 0 73 9.3 S
20 - 08:00 12.6 0 0 75 5.6 S
20 - 09:00
20 - 10:00 12.8 0 0 79 5 S
20 - 11:00 13.5 0 0 75 6.6 SW
Apalmet utiliza cookies propias y de terceros para mejorar la usabilidad y la experiencia web. Política de cookies.